« 2019年度福井県防災、緊急消防援助隊中部ブロック合同訓練【雁が原スキー場】 勝山市 2019/11/2 sat | トップページ | 趣味的航空路誌改訂情報 2019/11/7 thu »

2019/11/03

2019年度福井県防災、緊急消防援助隊中部ブロック合同訓練【真名川憩いの島】 大野市 2019/11/2 sat

その1から続く

会場を大野市真名川憩いの島へ移動して

20191102_oono_00ja785a

ANA961 RJTT-ZBAA JA785A B777-381ER

RJNF 020100Z 18003KT CAVOK 13/08 Q1022 RMK A3019

20191102_oono_01jg41842

10時を廻って訓練開始

20191102_oono_02jg41842

JG41842 UH-1J X

20191102_oono_03fdp

指揮支援部隊長が知事の下へ急ぎます

20191102_oono_04jg41842

陸自へりから偵察オートバイが2台

20191102_oono_05droon

ドローンも飛んで情報収集から

20191102_oono_06jg41842

陸自へり離脱 南から西へ廻って福井空港に帰ります。

20191102_oono_07jg

偵察中の陸自 迷彩が溶け込んでますね

20191102_oono_08fdp

トップバッターは福井県大隊

20191102_oono_09fdp

福井市消防局の特別救助隊

20191102_oono_10jg41842

ここでもドローンが情報収集中

20191102_oono_11ja291a

先ほどのバイク偵察情報から福井県へり

20191102_oono_12ja291a

JA291A BK117-C2 福井県防災航空隊

20191102_oono_13ja291a

河川敷藪から救助

20191102_oono_14fdp

愛知県大隊岡崎消防本部のレッド・サラマンダー到着

20191102_oono_15fdp

岐阜県大隊

20191102_oono_16fdp

レッド・サラマンダー川に入る

20191102_oono_17fdp

救助活動に必要な軽油も非常時は自前で、燃料補給車

20191102_oono_18fdp

すいすい、泳ぐじゃなくって、進む

20191102_oono_19fdp

おっと、場外乱闘並みの離れ業、急な堤防を駆け上ってきました。

20191102_oono_20fdp

先の交差点から橋まで封鎖され車両待機場に

20191102_oono_21fdp

二度目の入水

20191102_oono_22fdp

水を得たレッド・サラマンダー

#####

#####

20191102_oono_23fdp

静岡県大隊 今回は、一番の遠距離参加 小山とか下田とか来てました。

20191102_oono_24fdp

対岸から見る会場全体

20191102_oono_25fdp

複数の訓練が平行して進んでいるので、何がなんやら?

20191102_oono_26fdp

これは橋梁事故救出訓練

20191102_oono_27fdp

ライフライン復旧訓練と燃料補給車運用訓練なのですが・・

20191102_oono_28fdp

三度入水したレッド・サラマンダー

20191102_oono_29h784604

孤立対策訓練を至近の別会場で実施して、本会場へ

20191102_oono_30h784604

ヘリポートになっている野球場の周辺を確かめて、東から進入

20191102_oono_31h784604

78-4604 UH-60JII KOMATSU-ARS

20191102_oono_32h784604

負傷者をピックアップして・・

20191102_oono_33ja23ar

東側には次のへり「わかしゃち」

20191102_oono_34h784604

20191102_oono_35h784604

離陸して、福井空港へ

20191102_oono_36ja23ar

JA23AR B412EP 愛知県防災航空隊

20191102_oono_37ja23ar

川の土手へ北から進入

20191102_oono_38ja23ar

20191102_oono_39ja23ar

要救助者を吊り上げ救助

20191102_oono_40ja23ar

収容

20191102_oono_41ja23ar

西へブレイク 福井空港へ

20191102_oono_42fdp

雁が原スキー場で活躍した富山県隊が到着

20191102_oono_43fdp

この会場での訓練は無く、集合して待機

20191102_oono_44fdp

三重県隊も到着

20191102_oono_45fdp

浜松のブロアー車、手引きの小型ブロアーもあるのね

20191102_oono_46fdp

大野市消防団の入場 

20191102_oono_47fdp

ここは勝山と同じく数字の分団名。地域の名前の分団でないのは残念。

20191102_oono_48fdp

糸魚川大火から消化水確保にミキサー車はつき物です。

20191102_oono_49fdp

水槽に移します

20191102_oono_50fdp

まだまだ訓練は続いています

20191102_oono_51jg41842

陸自へりが北へ 大野北ポイント

20191102_oono_52ja291a

ブルーアローが東に 大野東ポイント

20191102_oono_53fdp

木造密集地火災消化訓練で消防団一斉放水

20191102_oono_54fdp

ここで富山県へり「とやま」が空中消火に飛来の予定でしたが、アクチャルミッションが入って富山の戻りました。

20191102_oono_55fdp

訓練終了 

20191102_oono_56fdp

福井県消防学校の偵察バイク

20191102_oono_57fdp

どこでも川は勢力の対立点

20191102_oono_58fdp

終了式に移ります

20191102_oono_59ja291a

ブルーアローさんは、奥越ふれあい公園で展示されていました。

RJNF 020200Z 10003KT CAVOK 15/07 Q1022 RMK A3018

20191102_oono_60jg

陸自さんは赤十字奉仕団と炊き出し訓練に参加してました。

20191102_oono_61fdp

終了式に参集

20191102_oono_62fdp

ずらーと並ぶ分団消防車

20191102_oono_63pob

警察さんは、バイクで子供達の人気者 ブルンブルン

20191102_oono_64fdp

大型のドローンが展示されていました。

20191102_oono_65fdp

レッド・サラマンダーは積み込まれてお休み

20191102_oono_66fdp

三重県大隊

20191102_oono_67fdp

富山県大隊

20191102_oono_68fdp

石川県大隊

20191102_oono_69fdp

一日良い天気で、なによりでした。

20191102_oono_70fdp

毒劇物災害対応訓練に参加したと思われるが、ブロアー車は使われませんでした。

RJNF 020300Z 02003KT CAVOK 17/07 Q1020 RMK A3014

20191102_oono_71fdp

消防団撤収

20191102_oono_72pob

ここから、北側出口から撤収の模様

20191102_oono_73pob

福井県警察

20191102_oono_74fdp

20191102_oono_75fdp

静岡県隊

20191102_oono_76fdp

静岡市消防局第1特殊災害対応隊

20191102_oono_77fdp

三重県隊

20191102_oono_78fdp

北側からは搬出できないので、南側に廻るサラマンダー

20191102_oono_79fdp

指揮隊の愛知県隊名古屋市消防局

20191102_oono_80fdp

岐阜県隊

20191102_oono_81fdp

変身キャラのような滋賀県隊

20191102_oono_82fdp

富山県隊

20191102_oono_83fdp

津波・大規模風水害対策車

20191102_oono_84fdp

石川県隊

福井県隊は、ここで解隊式を行って、それぞれ原隊に戻って行きました。

20191102_oono_85n856fd

FDX5154 RJAA-RKSI N856FD B777-2FS

一日、青空が美しい日でした。乙。

 

|

« 2019年度福井県防災、緊急消防援助隊中部ブロック合同訓練【雁が原スキー場】 勝山市 2019/11/2 sat | トップページ | 趣味的航空路誌改訂情報 2019/11/7 thu »

場外」カテゴリの記事

警務消防」カテゴリの記事

コメント

コメントを書く



(ウェブ上には掲載しません)


コメントは記事投稿者が公開するまで表示されません。



« 2019年度福井県防災、緊急消防援助隊中部ブロック合同訓練【雁が原スキー場】 勝山市 2019/11/2 sat | トップページ | 趣味的航空路誌改訂情報 2019/11/7 thu »